createdAt,value
2022-12-18T00:02:15.058Z,102191.56
2022-12-18T00:07:22.977Z,102205.44
2022-12-18T00:12:30.105Z,102204.63
2022-12-18T00:17:37.001Z,102205.38
2022-12-18T00:22:45.834Z,102219.97
2022-12-18T00:27:52.259Z,102209.94
2022-12-18T00:32:59.121Z,102231.34
2022-12-18T00:38:08.093Z,102242.50
2022-12-18T00:43:16.539Z,102244.16
2022-12-18T00:48:23.531Z,102252.72
2022-12-18T00:53:31.849Z,102252.63
2022-12-18T00:58:38.327Z,102260.28
2022-12-18T01:03:46.426Z,102265.59
2022-12-18T01:08:54.530Z,102270.75
2022-12-18T01:14:01.960Z,102277.09
2022-12-18T01:19:08.761Z,102277.34
2022-12-18T01:24:16.922Z,102284.84
2022-12-18T01:29:23.289Z,102290.75
2022-12-18T01:34:29.809Z,102295.06
2022-12-18T01:39:37.719Z,102304.41
2022-12-18T01:45:08.384Z,102316.53
2022-12-18T01:50:19.251Z,102318.16
2022-12-18T01:55:32.301Z,102326.00
2022-12-18T02:00:38.597Z,102333.66
2022-12-18T02:05:53.612Z,102346.31
2022-12-18T02:11:10.899Z,102353.22
2022-12-18T02:16:27.274Z,102371.66
2022-12-18T02:21:48.893Z,102372.41
2022-12-18T02:27:02.969Z,102381.72
2022-12-18T02:32:16.580Z,102386.66
2022-12-18T02:37:24.655Z,102401.09
2022-12-18T02:42:35.202Z,102406.78
2022-12-18T02:47:48.811Z,102413.38
2022-12-18T02:53:17.218Z,102415.78
2022-12-18T02:58:35.439Z,102423.06
2022-12-18T03:03:54.614Z,102432.09
2022-12-18T03:09:06.382Z,102443.63
2022-12-18T03:14:18.832Z,102440.69
2022-12-18T03:19:32.163Z,102456.47
2022-12-18T03:24:40.881Z,102465.41
2022-12-18T03:29:54.263Z,102458.97
2022-12-18T03:35:08.466Z,102468.50
2022-12-18T03:40:17.350Z,102469.41
2022-12-18T03:45:34.440Z,102483.28
2022-12-18T03:50:50.038Z,102496.44
2022-12-18T03:56:02.033Z,102489.38
2022-12-18T04:01:18.040Z,102499.47
2022-12-18T04:06:25.592Z,102517.78
2022-12-18T04:11:32.465Z,102521.41
2022-12-18T04:16:42.457Z,102531.91
2022-12-18T04:21:53.078Z,102529.50
2022-12-18T04:26:59.725Z,102536.03
2022-12-18T04:32:13.479Z,102539.63
2022-12-18T04:37:22.777Z,102551.59
2022-12-18T04:42:30.698Z,102555.31
2022-12-18T04:47:38.499Z,102568.75
2022-12-18T04:52:44.784Z,102578.56
2022-12-18T04:57:53.385Z,102587.50
2022-12-18T05:03:03.327Z,102597.16
2022-12-18T05:08:10.236Z,102604.22
2022-12-18T05:13:17.303Z,102601.25
2022-12-18T05:18:25.521Z,102614.63
2022-12-18T05:23:31.918Z,102624.03
2022-12-18T05:28:39.397Z,102625.81
2022-12-18T05:33:47.293Z,102628.47
2022-12-18T05:38:54.110Z,102626.91
2022-12-18T05:44:01.869Z,102627.34
2022-12-18T05:49:09.564Z,102635.53
2022-12-18T05:54:15.931Z,102634.88
2022-12-18T05:59:22.239Z,102639.41
2022-12-18T06:04:30.626Z,102647.50
2022-12-18T06:09:37.240Z,102671.84
2022-12-18T06:14:43.762Z,102676.25
2022-12-18T06:19:51.801Z,102684.75
2022-12-18T06:24:58.322Z,102698.69
2022-12-18T06:30:04.971Z,102698.44
2022-12-18T06:35:13.321Z,102703.31
2022-12-18T06:40:20.010Z,102702.75
2022-12-18T06:45:26.668Z,102721.03
2022-12-18T06:50:34.899Z,102723.59
2022-12-18T06:55:41.331Z,102726.34
2022-12-18T07:00:48.053Z,102731.63
2022-12-18T07:05:55.792Z,102730.00
2022-12-18T07:11:02.103Z,102738.41
2022-12-18T07:16:17.149Z,102748.81
2022-12-18T07:21:29.056Z,102766.09
2022-12-18T07:26:35.824Z,102770.63
2022-12-18T07:31:42.546Z,102796.47
2022-12-18T07:36:50.513Z,102800.88
2022-12-18T07:42:14.478Z,102798.44
2022-12-18T07:47:20.994Z,102808.06
2022-12-18T07:52:28.966Z,102815.94
2022-12-18T07:57:50.540Z,102821.03
2022-12-18T08:02:57.992Z,102824.56
2022-12-18T08:08:06.145Z,102835.22
2022-12-18T08:13:12.678Z,102838.84
2022-12-18T08:18:19.164Z,102848.63
2022-12-18T08:23:39.287Z,102847.16
2022-12-18T08:28:49.087Z,102853.38
2022-12-18T08:33:57.236Z,102866.34
2022-12-18T08:39:05.198Z,102868.09
2022-12-18T08:44:29.433Z,102878.53
2022-12-18T08:49:36.469Z,102886.41
2022-12-18T08:54:44.351Z,102889.03
2022-12-18T08:59:50.951Z,102896.91
2022-12-18T09:04:57.908Z,102906.78
2022-12-18T09:10:07.110Z,102900.75
2022-12-18T09:15:14.234Z,102902.06
2022-12-18T09:20:20.647Z,102903.25
2022-12-18T09:25:33.048Z,102897.03
2022-12-18T09:30:41.639Z,102896.53
2022-12-18T09:35:48.722Z,102896.09
2022-12-18T09:41:01.393Z,102907.63
2022-12-18T09:46:13.722Z,102918.22
2022-12-18T09:51:27.176Z,102924.44
2022-12-18T09:56:40.476Z,102927.19
2022-12-18T10:01:47.506Z,102915.44
2022-12-18T10:07:08.905Z,102908.84
2022-12-18T10:12:26.532Z,102916.81
2022-12-18T10:17:45.818Z,102915.34
2022-12-18T10:23:04.188Z,102913.81
2022-12-18T10:28:16.859Z,102914.78
2022-12-18T10:33:26.339Z,102912.44
2022-12-18T10:38:34.614Z,102907.66
2022-12-18T10:43:43.366Z,102917.88
2022-12-18T10:48:57.891Z,102918.97
2022-12-18T10:54:09.508Z,102912.25
2022-12-18T10:59:20.421Z,102900.47
2022-12-18T11:04:29.798Z,102910.00
2022-12-18T11:09:38.929Z,102897.22
2022-12-18T11:14:51.472Z,102912.69
2022-12-18T11:19:59.500Z,102911.41
2022-12-18T11:30:40.093Z,102917.69
2022-12-18T11:35:52.813Z,102912.88
2022-12-18T11:41:06.196Z,102919.59
2022-12-18T11:46:20.308Z,102915.06
2022-12-18T11:51:37.516Z,102933.91
2022-12-18T11:56:50.497Z,102934.31
2022-12-18T12:02:06.453Z,102918.88
2022-12-18T12:07:32.213Z,102914.44
2022-12-18T12:12:56.270Z,102935.97
2022-12-18T12:18:16.779Z,102948.09
2022-12-18T12:23:36.924Z,102954.63
2022-12-18T12:29:24.150Z,102969.47
2022-12-18T12:34:41.941Z,102975.38
2022-12-18T12:39:50.712Z,102990.53
2022-12-18T12:45:01.729Z,102989.81
2022-12-18T12:50:21.851Z,103001.47
2022-12-18T12:55:31.917Z,103006.44
2022-12-18T13:00:52.427Z,103018.41
2022-12-18T13:06:05.813Z,103015.88
2022-12-18T13:17:32.301Z,103031.03
2022-12-18T13:22:44.780Z,103047.94
2022-12-18T13:28:12.887Z,103044.06
2022-12-18T13:34:24.001Z,103045.31
2022-12-18T13:39:43.335Z,103041.53
2022-12-18T15:05:02.438Z,103108.16
2022-12-18T15:10:16.894Z,103114.44
2022-12-18T15:15:51.973Z,103113.22
2022-12-18T15:21:11.238Z,103121.09
2022-12-18T15:26:26.067Z,103131.09
2022-12-18T15:31:39.132Z,103124.75
2022-12-18T15:36:49.474Z,103118.41
2022-12-18T15:42:14.400Z,103127.50
2022-12-18T15:47:23.922Z,103126.59
2022-12-18T15:52:38.708Z,103135.59
2022-12-18T15:57:47.981Z,103135.16
2022-12-18T16:02:57.226Z,103122.03
2022-12-18T16:08:09.214Z,103121.28
2022-12-18T16:13:25.233Z,103119.72
2022-12-18T16:18:34.450Z,103113.25
2022-12-18T16:23:47.848Z,103124.03
2022-12-18T16:28:57.052Z,103120.59
2022-12-18T16:34:28.567Z,103138.94
2022-12-18T16:39:40.229Z,103154.22
2022-12-18T16:44:49.684Z,103150.91
2022-12-18T16:50:00.779Z,103148.09
2022-12-18T16:55:16.291Z,103137.16
2022-12-18T17:00:29.529Z,103148.25
2022-12-18T17:05:42.407Z,103150.78
2022-12-18T17:10:52.867Z,103141.47
2022-12-18T17:16:07.728Z,103150.78
2022-12-18T17:21:18.242Z,103151.03
2022-12-18T17:26:43.704Z,103158.13
2022-12-18T17:31:54.624Z,103166.03
2022-12-18T17:37:07.388Z,103163.47
2022-12-18T17:42:20.445Z,103171.91
2022-12-18T17:47:31.513Z,103174.31
2022-12-18T17:52:41.393Z,103167.38
2022-12-18T17:57:53.071Z,103177.38
2022-12-18T18:03:05.439Z,103181.44
2022-12-18T18:08:15.329Z,103179.97
2022-12-18T18:13:47.174Z,103163.22
2022-12-18T18:18:56.592Z,103161.16
2022-12-18T18:24:06.103Z,103151.97
2022-12-18T18:29:19.986Z,103157.22
2022-12-18T18:34:31.535Z,103151.53
2022-12-18T18:39:44.476Z,103180.16
2022-12-18T18:44:56.019Z,103159.09
2022-12-18T18:50:07.276Z,103179.28
2022-12-18T18:55:25.768Z,103174.97
2022-12-18T19:00:37.402Z,103161.19
2022-12-18T19:05:47.688Z,103157.44
2022-12-18T19:10:58.183Z,103160.44
2022-12-18T19:16:11.587Z,103164.53
2022-12-18T19:21:22.043Z,103179.34
2022-12-18T19:26:31.376Z,103161.25
2022-12-18T19:31:42.303Z,103165.03
2022-12-18T19:36:53.926Z,103177.53
2022-12-18T19:42:07.721Z,103197.13
2022-12-18T19:47:18.338Z,103178.84
2022-12-18T19:52:27.457Z,103180.16
2022-12-18T19:57:36.616Z,103181.41
2022-12-18T20:02:47.795Z,103186.63
2022-12-18T20:07:59.214Z,103185.59
2022-12-18T20:13:08.482Z,103187.28
2022-12-18T20:18:18.948Z,103210.84
2022-12-18T20:23:29.795Z,103222.16
2022-12-18T20:28:41.788Z,103244.09
2022-12-18T20:34:01.737Z,103244.88
2022-12-18T20:39:12.191Z,103243.25
2022-12-18T20:44:24.002Z,103246.69
2022-12-18T20:49:36.548Z,103237.78
2022-12-18T20:54:45.153Z,103227.47
2022-12-18T20:59:51.743Z,103234.47
2022-12-18T21:05:00.097Z,103221.97
2022-12-18T21:10:10.516Z,103229.63
2022-12-18T21:15:17.609Z,103223.13
2022-12-18T21:20:26.084Z,103211.00
2022-12-18T21:25:32.770Z,103208.34
2022-12-18T21:30:41.346Z,103194.88
2022-12-18T21:35:49.071Z,103170.66
2022-12-18T21:40:56.235Z,103154.38
2022-12-18T21:46:03.114Z,103143.59
2022-12-18T21:51:11.381Z,103143.84
2022-12-18T21:56:17.792Z,103141.16
2022-12-18T22:01:24.324Z,103149.69
2022-12-18T22:06:42.993Z,103149.31
2022-12-18T22:11:50.538Z,103145.53
2022-12-18T22:16:57.919Z,103149.84
2022-12-18T22:22:06.730Z,103142.56
2022-12-18T22:27:13.285Z,103144.34
2022-12-18T22:32:30.808Z,103130.06
2022-12-18T22:37:39.562Z,103131.84
2022-12-18T22:42:46.092Z,103133.41
2022-12-18T22:47:52.997Z,103115.69
2022-12-18T22:53:01.021Z,103119.00
2022-12-18T22:58:07.517Z,103120.19
2022-12-18T23:03:14.032Z,103110.53
2022-12-18T23:08:21.819Z,103101.03
2022-12-18T23:13:29.622Z,103092.53
2022-12-18T23:18:36.610Z,103105.00
2022-12-18T23:23:45.258Z,103105.44
2022-12-18T23:28:53.370Z,103111.22
2022-12-18T23:34:01.675Z,103110.25
2022-12-18T23:39:10.300Z,103095.94
2022-12-18T23:44:16.482Z,103098.88
2022-12-18T23:49:22.857Z,103086.88
2022-12-18T23:54:33.440Z,103081.59
2022-12-18T23:59:40.364Z,103096.19
